sensor_id;sensor_type;location;lat;lon;timestamp;P1;durP1;ratioP1;P2;durP2;ratioP2
253;SDS011;590;48.772;8.846;2022-07-23T00:00:34;6.50;;;6.10;;
253;SDS011;590;48.772;8.846;2022-07-23T00:03:04;7.20;;;6.80;;
253;SDS011;590;48.772;8.846;2022-07-23T00:05:33;6.37;;;6.00;;
253;SDS011;590;48.772;8.846;2022-07-23T00:08:02;6.33;;;5.97;;
253;SDS011;590;48.772;8.846;2022-07-23T00:10:35;6.10;;;5.80;;
253;SDS011;590;48.772;8.846;2022-07-23T00:13:03;7.43;;;7.03;;
253;SDS011;590;48.772;8.846;2022-07-23T00:15:31;7.33;;;6.93;;
253;SDS011;590;48.772;8.846;2022-07-23T00:18:01;7.70;;;7.30;;
253;SDS011;590;48.772;8.846;2022-07-23T00:20:29;6.73;;;6.33;;
253;SDS011;590;48.772;8.846;2022-07-23T00:22:57;5.97;;;5.67;;
253;SDS011;590;48.772;8.846;2022-07-23T00:25:26;7.00;;;6.60;;
253;SDS011;590;48.772;8.846;2022-07-23T00:27:56;6.87;;;6.47;;
253;SDS011;590;48.772;8.846;2022-07-23T00:30:25;7.37;;;6.97;;
253;SDS011;590;48.772;8.846;2022-07-23T00:32:56;6.97;;;6.57;;
253;SDS011;590;48.772;8.846;2022-07-23T00:35:28;7.13;;;6.73;;
253;SDS011;590;48.772;8.846;2022-07-23T00:37:58;7.03;;;6.63;;
253;SDS011;590;48.772;8.846;2022-07-23T00:40:27;6.13;;;5.83;;
253;SDS011;590;48.772;8.846;2022-07-23T00:42:57;5.80;;;5.50;;
253;SDS011;590;48.772;8.846;2022-07-23T00:45:25;7.20;;;6.80;;
253;SDS011;590;48.772;8.846;2022-07-23T00:47:54;6.80;;;6.40;;
253;SDS011;590;48.772;8.846;2022-07-23T00:50:22;6.83;;;6.43;;
253;SDS011;590;48.772;8.846;2022-07-23T00:52:52;7.10;;;6.70;;
253;SDS011;590;48.772;8.846;2022-07-23T00:55:20;6.67;;;6.27;;
253;SDS011;590;48.772;8.846;2022-07-23T00:57:49;6.70;;;6.30;;
253;SDS011;590;48.772;8.846;2022-07-23T01:00:18;7.50;;;7.10;;
253;SDS011;590;48.772;8.846;2022-07-23T01:02:46;6.83;;;6.43;;
253;SDS011;590;48.772;8.846;2022-07-23T01:05:14;7.20;;;6.80;;
253;SDS011;590;48.772;8.846;2022-07-23T01:07:43;7.57;;;7.17;;
253;SDS011;590;48.772;8.846;2022-07-23T01:10:14;6.47;;;6.07;;
253;SDS011;590;48.772;8.846;2022-07-23T01:12:58;7.00;;;6.60;;
253;SDS011;590;48.772;8.846;2022-07-23T01:15:27;6.00;;;5.70;;
253;SDS011;590;48.772;8.846;2022-07-23T01:17:56;8.87;;;8.37;;
253;SDS011;590;48.772;8.846;2022-07-23T01:20:24;8.00;;;7.60;;
253;SDS011;590;48.772;8.846;2022-07-23T01:22:53;7.57;;;7.17;;
253;SDS011;590;48.772;8.846;2022-07-23T01:25:22;7.70;;;7.30;;
253;SDS011;590;48.772;8.846;2022-07-23T01:27:51;6.80;;;6.40;;
253;SDS011;590;48.772;8.846;2022-07-23T01:30:20;7.40;;;7.00;;
253;SDS011;590;48.772;8.846;2022-07-23T01:32:48;7.00;;;6.60;;
253;SDS011;590;48.772;8.846;2022-07-23T01:35:16;6.60;;;6.20;;
253;SDS011;590;48.772;8.846;2022-07-23T01:37:44;6.10;;;5.80;;
253;SDS011;590;48.772;8.846;2022-07-23T01:40:13;7.13;;;6.73;;
253;SDS011;590;48.772;8.846;2022-07-23T01:42:44;6.77;;;6.37;;
253;SDS011;590;48.772;8.846;2022-07-23T01:45:12;6.43;;;6.03;;
253;SDS011;590;48.772;8.846;2022-07-23T01:47:41;6.40;;;6.03;;
253;SDS011;590;48.772;8.846;2022-07-23T01:50:09;7.00;;;6.60;;
253;SDS011;590;48.772;8.846;2022-07-23T01:52:37;7.07;;;6.67;;
253;SDS011;590;48.772;8.846;2022-07-23T01:55:05;6.93;;;6.53;;
253;SDS011;590;48.772;8.846;2022-07-23T01:57:36;6.60;;;6.20;;
253;SDS011;590;48.772;8.846;2022-07-23T02:00:04;6.77;;;6.37;;
253;SDS011;590;48.772;8.846;2022-07-23T02:02:33;6.63;;;6.23;;
253;SDS011;590;48.772;8.846;2022-07-23T02:05:01;7.33;;;6.93;;
253;SDS011;590;48.772;8.846;2022-07-23T02:07:29;6.70;;;6.30;;
253;SDS011;590;48.772;8.846;2022-07-23T02:10:00;7.60;;;7.20;;
253;SDS011;590;48.772;8.846;2022-07-23T02:12:28;7.50;;;7.10;;
253;SDS011;590;48.772;8.846;2022-07-23T02:14:57;6.80;;;6.40;;
253;SDS011;590;48.772;8.846;2022-07-23T02:17:25;7.30;;;6.90;;
253;SDS011;590;48.772;8.846;2022-07-23T02:19:53;6.90;;;6.50;;
253;SDS011;590;48.772;8.846;2022-07-23T02:22:21;6.70;;;6.30;;
253;SDS011;590;48.772;8.846;2022-07-23T02:24:49;7.10;;;6.70;;
253;SDS011;590;48.772;8.846;2022-07-23T02:27:17;7.50;;;7.10;;
253;SDS011;590;48.772;8.846;2022-07-23T02:29:45;6.83;;;6.43;;
253;SDS011;590;48.772;8.846;2022-07-23T02:32:15;7.70;;;7.30;;
253;SDS011;590;48.772;8.846;2022-07-23T02:34:43;7.43;;;7.03;;
253;SDS011;590;48.772;8.846;2022-07-23T02:37:11;6.67;;;6.27;;
253;SDS011;590;48.772;8.846;2022-07-23T02:39:40;7.60;;;7.20;;
253;SDS011;590;48.772;8.846;2022-07-23T02:42:08;6.93;;;6.53;;
253;SDS011;590;48.772;8.846;2022-07-23T02:44:36;7.23;;;6.83;;
253;SDS011;590;48.772;8.846;2022-07-23T02:47:04;7.83;;;7.43;;
253;SDS011;590;48.772;8.846;2022-07-23T02:49:33;7.83;;;7.43;;
253;SDS011;590;48.772;8.846;2022-07-23T02:52:02;8.57;;;8.07;;
253;SDS011;590;48.772;8.846;2022-07-23T02:54:30;7.47;;;7.07;;
253;SDS011;590;48.772;8.846;2022-07-23T02:56:58;7.13;;;6.73;;
253;SDS011;590;48.772;8.846;2022-07-23T02:59:26;7.40;;;7.00;;
253;SDS011;590;48.772;8.846;2022-07-23T03:01:54;6.47;;;6.07;;
253;SDS011;590;48.772;8.846;2022-07-23T03:04:22;6.53;;;6.13;;
253;SDS011;590;48.772;8.846;2022-07-23T03:06:52;6.20;;;5.90;;
253;SDS011;590;48.772;8.846;2022-07-23T03:09:20;7.00;;;6.60;;
253;SDS011;590;48.772;8.846;2022-07-23T03:11:48;7.13;;;6.73;;
253;SDS011;590;48.772;8.846;2022-07-23T03:14:16;6.53;;;6.13;;
253;SDS011;590;48.772;8.846;2022-07-23T03:16:44;6.77;;;6.37;;
253;SDS011;590;48.772;8.846;2022-07-23T03:19:12;5.80;;;5.50;;
253;SDS011;590;48.772;8.846;2022-07-23T03:21:40;7.37;;;6.97;;
253;SDS011;590;48.772;8.846;2022-07-23T03:24:09;7.20;;;6.80;;
253;SDS011;590;48.772;8.846;2022-07-23T03:26:37;7.10;;;6.70;;
253;SDS011;590;48.772;8.846;2022-07-23T03:29:06;7.17;;;6.33;;
253;SDS011;590;48.772;8.846;2022-07-23T03:31:34;6.90;;;6.50;;
253;SDS011;590;48.772;8.846;2022-07-23T03:34:02;6.00;;;5.70;;
253;SDS011;590;48.772;8.846;2022-07-23T03:36:30;6.70;;;6.30;;
253;SDS011;590;48.772;8.846;2022-07-23T03:38:58;7.07;;;6.30;;
253;SDS011;590;48.772;8.846;2022-07-23T03:41:29;6.80;;;6.40;;
253;SDS011;590;48.772;8.846;2022-07-23T03:43:57;6.80;;;6.40;;
253;SDS011;590;48.772;8.846;2022-07-23T03:46:25;7.00;;;6.60;;
253;SDS011;590;48.772;8.846;2022-07-23T03:48:53;5.93;;;5.63;;
253;SDS011;590;48.772;8.846;2022-07-23T03:51:24;6.73;;;6.33;;
253;SDS011;590;48.772;8.846;2022-07-23T03:53:52;6.53;;;6.13;;
253;SDS011;590;48.772;8.846;2022-07-23T03:56:21;6.27;;;5.93;;
253;SDS011;590;48.772;8.846;2022-07-23T03:58:50;6.80;;;6.40;;
253;SDS011;590;48.772;8.846;2022-07-23T04:01:18;6.53;;;6.13;;
253;SDS011;590;48.772;8.846;2022-07-23T04:03:46;6.70;;;6.30;;
253;SDS011;590;48.772;8.846;2022-07-23T04:06:14;6.93;;;6.53;;
253;SDS011;590;48.772;8.846;2022-07-23T04:08:42;6.63;;;6.23;;
253;SDS011;590;48.772;8.846;2022-07-23T04:11:10;6.40;;;6.00;;
253;SDS011;590;48.772;8.846;2022-07-23T04:13:39;6.97;;;6.57;;
253;SDS011;590;48.772;8.846;2022-07-23T04:16:08;7.60;;;7.20;;
253;SDS011;590;48.772;8.846;2022-07-23T04:18:36;6.50;;;6.10;;
253;SDS011;590;48.772;8.846;2022-07-23T04:21:05;6.27;;;5.93;;
253;SDS011;590;48.772;8.846;2022-07-23T04:23:33;7.13;;;6.73;;
253;SDS011;590;48.772;8.846;2022-07-23T04:26:01;7.30;;;6.90;;
253;SDS011;590;48.772;8.846;2022-07-23T04:28:29;7.27;;;6.87;;
253;SDS011;590;48.772;8.846;2022-07-23T04:30:57;7.27;;;6.87;;
253;SDS011;590;48.772;8.846;2022-07-23T04:33:27;6.70;;;6.30;;
253;SDS011;590;48.772;8.846;2022-07-23T04:35:55;7.93;;;7.57;;
253;SDS011;590;48.772;8.846;2022-07-23T04:38:23;7.43;;;7.03;;
253;SDS011;590;48.772;8.846;2022-07-23T04:40:51;7.03;;;6.63;;
253;SDS011;590;48.772;8.846;2022-07-23T04:43:19;5.47;;;5.17;;
253;SDS011;590;48.772;8.846;2022-07-23T04:45:47;7.30;;;6.90;;
253;SDS011;590;48.772;8.846;2022-07-23T04:48:16;7.10;;;6.70;;
253;SDS011;590;48.772;8.846;2022-07-23T04:50:45;6.90;;;6.50;;
253;SDS011;590;48.772;8.846;2022-07-23T04:53:13;6.60;;;6.20;;
253;SDS011;590;48.772;8.846;2022-07-23T04:55:41;8.37;;;7.17;;
253;SDS011;590;48.772;8.846;2022-07-23T04:58:09;7.10;;;6.70;;
253;SDS011;590;48.772;8.846;2022-07-23T05:00:37;6.63;;;6.23;;
253;SDS011;590;48.772;8.846;2022-07-23T05:03:05;6.33;;;5.97;;
253;SDS011;590;48.772;8.846;2022-07-23T05:05:33;6.07;;;5.77;;
253;SDS011;590;48.772;8.846;2022-07-23T05:08:03;6.77;;;6.37;;
253;SDS011;590;48.772;8.846;2022-07-23T05:10:33;7.13;;;6.73;;
253;SDS011;590;48.772;8.846;2022-07-23T05:13:01;5.93;;;5.63;;
253;SDS011;590;48.772;8.846;2022-07-23T05:15:29;6.67;;;6.27;;
253;SDS011;590;48.772;8.846;2022-07-23T05:17:57;6.10;;;5.80;;
253;SDS011;590;48.772;8.846;2022-07-23T05:20:25;7.10;;;6.70;;
253;SDS011;590;48.772;8.846;2022-07-23T05:22:53;6.63;;;6.23;;
253;SDS011;590;48.772;8.846;2022-07-23T05:25:23;6.33;;;5.97;;
253;SDS011;590;48.772;8.846;2022-07-23T05:27:51;6.33;;;5.97;;
253;SDS011;590;48.772;8.846;2022-07-23T05:30:19;6.73;;;6.33;;
253;SDS011;590;48.772;8.846;2022-07-23T05:32:48;7.00;;;6.60;;
253;SDS011;590;48.772;8.846;2022-07-23T05:35:16;6.57;;;6.17;;
253;SDS011;590;48.772;8.846;2022-07-23T05:37:44;6.23;;;5.90;;
253;SDS011;590;48.772;8.846;2022-07-23T05:40:12;6.83;;;6.43;;
253;SDS011;590;48.772;8.846;2022-07-23T05:42:42;6.80;;;6.40;;
253;SDS011;590;48.772;8.846;2022-07-23T05:45:10;6.63;;;6.23;;
253;SDS011;590;48.772;8.846;2022-07-23T05:47:39;6.50;;;6.10;;
253;SDS011;590;48.772;8.846;2022-07-23T05:50:08;6.57;;;6.17;;
253;SDS011;590;48.772;8.846;2022-07-23T05:52:37;7.33;;;6.93;;
253;SDS011;590;48.772;8.846;2022-07-23T05:55:06;8.03;;;6.70;;
253;SDS011;590;48.772;8.846;2022-07-23T05:57:35;7.30;;;6.90;;
253;SDS011;590;48.772;8.846;2022-07-23T06:00:05;6.60;;;6.20;;
253;SDS011;590;48.772;8.846;2022-07-23T06:02:36;6.40;;;5.70;;
253;SDS011;590;48.772;8.846;2022-07-23T06:05:05;6.70;;;6.30;;
253;SDS011;590;48.772;8.846;2022-07-23T06:07:34;6.13;;;5.83;;
253;SDS011;590;48.772;8.846;2022-07-23T06:10:03;7.07;;;6.67;;
253;SDS011;590;48.772;8.846;2022-07-23T06:12:33;6.60;;;6.20;;
253;SDS011;590;48.772;8.846;2022-07-23T06:15:02;6.63;;;6.23;;
253;SDS011;590;48.772;8.846;2022-07-23T06:17:38;6.83;;;6.03;;
253;SDS011;590;48.772;8.846;2022-07-23T06:20:07;6.90;;;6.50;;
253;SDS011;590;48.772;8.846;2022-07-23T06:22:35;7.00;;;6.60;;
253;SDS011;590;48.772;8.846;2022-07-23T06:25:07;5.83;;;5.53;;
253;SDS011;590;48.772;8.846;2022-07-23T06:27:45;6.70;;;6.30;;
253;SDS011;590;48.772;8.846;2022-07-23T06:30:13;6.53;;;6.13;;
253;SDS011;590;48.772;8.846;2022-07-23T06:32:54;6.80;;;6.40;;
253;SDS011;590;48.772;8.846;2022-07-23T06:35:31;6.07;;;5.77;;
253;SDS011;590;48.772;8.846;2022-07-23T06:38:02;6.13;;;5.83;;
253;SDS011;590;48.772;8.846;2022-07-23T06:40:31;5.77;;;5.47;;
253;SDS011;590;48.772;8.846;2022-07-23T06:42:59;6.17;;;5.87;;
253;SDS011;590;48.772;8.846;2022-07-23T06:45:27;7.00;;;6.60;;
253;SDS011;590;48.772;8.846;2022-07-23T06:48:00;6.00;;;5.70;;
253;SDS011;590;48.772;8.846;2022-07-23T06:50:31;7.70;;;7.30;;
253;SDS011;590;48.772;8.846;2022-07-23T06:52:59;7.43;;;7.03;;
253;SDS011;590;48.772;8.846;2022-07-23T06:55:30;7.00;;;6.60;;
253;SDS011;590;48.772;8.846;2022-07-23T06:57:58;8.70;;;8.20;;
253;SDS011;590;48.772;8.846;2022-07-23T07:00:28;7.90;;;7.50;;
253;SDS011;590;48.772;8.846;2022-07-23T07:03:05;8.43;;;7.97;;
253;SDS011;590;48.772;8.846;2022-07-23T07:05:33;7.40;;;7.00;;
253;SDS011;590;48.772;8.846;2022-07-23T07:08:01;7.97;;;7.57;;
253;SDS011;590;48.772;8.846;2022-07-23T07:10:30;7.70;;;7.30;;
253;SDS011;590;48.772;8.846;2022-07-23T07:13:10;7.77;;;7.37;;
253;SDS011;590;48.772;8.846;2022-07-23T07:15:38;7.97;;;7.57;;
253;SDS011;590;48.772;8.846;2022-07-23T07:18:07;7.40;;;7.00;;
253;SDS011;590;48.772;8.846;2022-07-23T07:20:35;6.90;;;6.50;;
253;SDS011;590;48.772;8.846;2022-07-23T07:23:03;7.60;;;7.20;;
253;SDS011;590;48.772;8.846;2022-07-23T07:25:31;8.20;;;7.80;;
253;SDS011;590;48.772;8.846;2022-07-23T07:28:00;7.60;;;7.20;;
253;SDS011;590;48.772;8.846;2022-07-23T07:30:28;7.50;;;7.10;;
253;SDS011;590;48.772;8.846;2022-07-23T07:33:00;7.57;;;7.17;;
253;SDS011;590;48.772;8.846;2022-07-23T07:35:29;7.33;;;6.93;;
253;SDS011;590;48.772;8.846;2022-07-23T07:38:06;7.73;;;7.33;;
253;SDS011;590;48.772;8.846;2022-07-23T07:40:34;7.80;;;7.40;;
253;SDS011;590;48.772;8.846;2022-07-23T07:43:03;7.40;;;7.00;;
253;SDS011;590;48.772;8.846;2022-07-23T07:45:33;8.00;;;7.60;;
253;SDS011;590;48.772;8.846;2022-07-23T07:48:01;8.17;;;7.77;;
253;SDS011;590;48.772;8.846;2022-07-23T07:50:33;7.93;;;7.50;;
253;SDS011;590;48.772;8.846;2022-07-23T07:53:01;7.70;;;7.30;;
253;SDS011;590;48.772;8.846;2022-07-23T07:55:30;7.10;;;6.70;;
253;SDS011;590;48.772;8.846;2022-07-23T07:57:58;7.13;;;6.73;;
253;SDS011;590;48.772;8.846;2022-07-23T08:00:32;7.40;;;7.00;;
253;SDS011;590;48.772;8.846;2022-07-23T08:03:00;7.20;;;6.80;;
253;SDS011;590;48.772;8.846;2022-07-23T08:05:29;6.83;;;6.43;;
253;SDS011;590;48.772;8.846;2022-07-23T08:08:01;7.13;;;6.73;;
253;SDS011;590;48.772;8.846;2022-07-23T08:10:29;7.80;;;7.40;;
253;SDS011;590;48.772;8.846;2022-07-23T08:12:58;8.23;;;7.70;;
253;SDS011;590;48.772;8.846;2022-07-23T08:15:28;7.23;;;6.83;;
253;SDS011;590;48.772;8.846;2022-07-23T08:17:58;7.97;;;7.57;;
253;SDS011;590;48.772;8.846;2022-07-23T08:20:27;7.67;;;7.27;;
253;SDS011;590;48.772;8.846;2022-07-23T08:22:55;8.20;;;7.80;;
253;SDS011;590;48.772;8.846;2022-07-23T08:25:26;7.83;;;7.43;;
253;SDS011;590;48.772;8.846;2022-07-23T08:27:55;7.70;;;7.30;;
253;SDS011;590;48.772;8.846;2022-07-23T08:30:24;7.40;;;7.00;;
253;SDS011;590;48.772;8.846;2022-07-23T08:32:54;7.10;;;6.70;;
253;SDS011;590;48.772;8.846;2022-07-23T08:35:26;7.30;;;6.90;;
253;SDS011;590;48.772;8.846;2022-07-23T08:37:56;7.70;;;7.30;;
253;SDS011;590;48.772;8.846;2022-07-23T08:40:26;7.17;;;6.77;;
253;SDS011;590;48.772;8.846;2022-07-23T08:42:56;7.57;;;7.17;;
253;SDS011;590;48.772;8.846;2022-07-23T08:45:25;6.83;;;6.43;;
253;SDS011;590;48.772;8.846;2022-07-23T08:47:54;5.93;;;5.63;;
253;SDS011;590;48.772;8.846;2022-07-23T08:50:27;6.90;;;6.50;;
253;SDS011;590;48.772;8.846;2022-07-23T08:52:55;6.70;;;6.30;;
253;SDS011;590;48.772;8.846;2022-07-23T08:55:24;7.23;;;6.83;;
253;SDS011;590;48.772;8.846;2022-07-23T08:57:54;7.33;;;6.93;;
253;SDS011;590;48.772;8.846;2022-07-23T09:00:22;6.70;;;6.30;;
253;SDS011;590;48.772;8.846;2022-07-23T09:02:50;6.90;;;6.50;;
253;SDS011;590;48.772;8.846;2022-07-23T09:05:19;7.43;;;6.47;;
253;SDS011;590;48.772;8.846;2022-07-23T09:08:06;7.47;;;7.07;;
253;SDS011;590;48.772;8.846;2022-07-23T09:10:43;7.37;;;7.00;;
253;SDS011;590;48.772;8.846;2022-07-23T09:13:29;6.53;;;6.13;;
253;SDS011;590;48.772;8.846;2022-07-23T09:16:10;6.20;;;5.90;;
253;SDS011;590;48.772;8.846;2022-07-23T09:18:42;6.90;;;6.50;;
253;SDS011;590;48.772;8.846;2022-07-23T09:21:15;6.93;;;6.53;;
253;SDS011;590;48.772;8.846;2022-07-23T09:23:55;6.90;;;6.50;;
253;SDS011;590;48.772;8.846;2022-07-23T09:26:30;5.90;;;5.60;;
253;SDS011;590;48.772;8.846;2022-07-23T09:29:04;7.00;;;6.60;;
253;SDS011;590;48.772;8.846;2022-07-23T09:31:43;7.07;;;6.67;;
253;SDS011;590;48.772;8.846;2022-07-23T09:34:15;6.80;;;6.40;;
253;SDS011;590;48.772;8.846;2022-07-23T09:36:45;7.30;;;6.90;;
253;SDS011;590;48.772;8.846;2022-07-23T09:39:14;7.00;;;6.60;;
253;SDS011;590;48.772;8.846;2022-07-23T09:41:45;6.63;;;6.23;;
253;SDS011;590;48.772;8.846;2022-07-23T09:44:14;6.57;;;6.17;;
253;SDS011;590;48.772;8.846;2022-07-23T09:46:44;6.07;;;5.77;;
253;SDS011;590;48.772;8.846;2022-07-23T09:49:16;6.73;;;6.33;;
253;SDS011;590;48.772;8.846;2022-07-23T09:51:47;6.17;;;5.87;;
253;SDS011;590;48.772;8.846;2022-07-23T09:54:25;6.60;;;6.20;;
253;SDS011;590;48.772;8.846;2022-07-23T09:56:58;6.93;;;6.53;;
253;SDS011;590;48.772;8.846;2022-07-23T09:59:28;5.70;;;5.40;;
253;SDS011;590;48.772;8.846;2022-07-23T10:02:00;6.60;;;6.20;;
253;SDS011;590;48.772;8.846;2022-07-23T10:04:29;6.63;;;6.23;;
253;SDS011;590;48.772;8.846;2022-07-23T10:07:01;5.87;;;5.57;;
253;SDS011;590;48.772;8.846;2022-07-23T10:09:31;6.50;;;6.10;;
253;SDS011;590;48.772;8.846;2022-07-23T10:12:02;6.63;;;6.23;;
253;SDS011;590;48.772;8.846;2022-07-23T10:14:39;7.00;;;6.60;;
253;SDS011;590;48.772;8.846;2022-07-23T10:17:07;7.07;;;6.67;;
253;SDS011;590;48.772;8.846;2022-07-23T10:19:36;7.73;;;7.33;;
253;SDS011;590;48.772;8.846;2022-07-23T10:22:05;6.57;;;6.17;;
253;SDS011;590;48.772;8.846;2022-07-23T10:24:40;6.47;;;6.07;;
253;SDS011;590;48.772;8.846;2022-07-23T10:27:42;6.40;;;6.03;;
253;SDS011;590;48.772;8.846;2022-07-23T10:30:16;6.70;;;6.30;;
253;SDS011;590;48.772;8.846;2022-07-23T10:32:56;6.03;;;5.73;;
253;SDS011;590;48.772;8.846;2022-07-23T10:35:37;7.40;;;7.00;;
253;SDS011;590;48.772;8.846;2022-07-23T10:38:12;7.10;;;6.70;;
253;SDS011;590;48.772;8.846;2022-07-23T10:40:54;6.70;;;6.30;;
253;SDS011;590;48.772;8.846;2022-07-23T10:43:26;7.70;;;7.30;;
253;SDS011;590;48.772;8.846;2022-07-23T10:45:55;6.50;;;6.10;;
253;SDS011;590;48.772;8.846;2022-07-23T10:48:24;6.17;;;5.83;;
253;SDS011;590;48.772;8.846;2022-07-23T10:53:53;7.10;;;6.70;;
253;SDS011;590;48.772;8.846;2022-07-23T11:02:43;7.57;;;7.17;;
253;SDS011;590;48.772;8.846;2022-07-23T11:05:13;7.00;;;6.60;;
253;SDS011;590;48.772;8.846;2022-07-23T11:10:41;6.80;;;6.40;;
253;SDS011;590;48.772;8.846;2022-07-23T11:16:16;7.10;;;6.70;;
253;SDS011;590;48.772;8.846;2022-07-23T11:21:40;6.87;;;6.47;;
253;SDS011;590;48.772;8.846;2022-07-23T11:24:09;7.10;;;6.70;;
253;SDS011;590;48.772;8.846;2022-07-23T11:26:43;7.10;;;6.70;;
253;SDS011;590;48.772;8.846;2022-07-23T11:35:24;6.60;;;6.20;;
253;SDS011;590;48.772;8.846;2022-07-23T11:37:54;7.20;;;6.80;;
253;SDS011;590;48.772;8.846;2022-07-23T11:40:34;7.70;;;7.30;;
253;SDS011;590;48.772;8.846;2022-07-23T11:43:03;7.57;;;7.17;;
253;SDS011;590;48.772;8.846;2022-07-23T11:45:33;7.10;;;6.70;;
253;SDS011;590;48.772;8.846;2022-07-23T11:48:05;7.20;;;6.80;;
253;SDS011;590;48.772;8.846;2022-07-23T11:50:34;7.93;;;7.53;;
253;SDS011;590;48.772;8.846;2022-07-23T11:53:03;7.67;;;7.27;;
253;SDS011;590;48.772;8.846;2022-07-23T11:55:31;7.50;;;7.10;;
253;SDS011;590;48.772;8.846;2022-07-23T11:57:59;7.33;;;6.93;;
253;SDS011;590;48.772;8.846;2022-07-23T12:00:28;6.90;;;6.50;;
253;SDS011;590;48.772;8.846;2022-07-23T12:03:07;7.53;;;7.13;;
253;SDS011;590;48.772;8.846;2022-07-23T12:05:36;7.37;;;6.97;;
253;SDS011;590;48.772;8.846;2022-07-23T12:08:05;7.70;;;7.30;;
253;SDS011;590;48.772;8.846;2022-07-23T12:10:35;6.77;;;6.37;;
253;SDS011;590;48.772;8.846;2022-07-23T12:13:05;8.07;;;7.67;;
253;SDS011;590;48.772;8.846;2022-07-23T12:15:37;7.63;;;7.23;;
253;SDS011;590;48.772;8.846;2022-07-23T12:18:09;7.90;;;7.50;;
253;SDS011;590;48.772;8.846;2022-07-23T12:20:39;8.10;;;7.70;;
253;SDS011;590;48.772;8.846;2022-07-23T12:23:09;7.07;;;6.67;;
253;SDS011;590;48.772;8.846;2022-07-23T12:25:46;7.57;;;7.17;;
253;SDS011;590;48.772;8.846;2022-07-23T12:28:15;7.37;;;6.97;;
253;SDS011;590;48.772;8.846;2022-07-23T12:30:45;7.33;;;6.93;;
253;SDS011;590;48.772;8.846;2022-07-23T12:33:21;7.50;;;7.10;;
253;SDS011;590;48.772;8.846;2022-07-23T12:35:51;7.53;;;7.13;;
253;SDS011;590;48.772;8.846;2022-07-23T12:38:22;6.53;;;6.13;;
253;SDS011;590;48.772;8.846;2022-07-23T12:40:52;7.47;;;7.07;;
253;SDS011;590;48.772;8.846;2022-07-23T12:43:22;7.47;;;7.07;;
253;SDS011;590;48.772;8.846;2022-07-23T12:45:52;7.90;;;7.50;;
253;SDS011;590;48.772;8.846;2022-07-23T12:48:24;7.33;;;6.93;;
253;SDS011;590;48.772;8.846;2022-07-23T12:50:57;7.67;;;7.27;;
253;SDS011;590;48.772;8.846;2022-07-23T12:53:27;7.50;;;7.10;;
253;SDS011;590;48.772;8.846;2022-07-23T12:55:58;7.37;;;6.97;;
253;SDS011;590;48.772;8.846;2022-07-23T12:58:48;7.10;;;6.70;;
253;SDS011;590;48.772;8.846;2022-07-23T13:01:27;7.60;;;7.20;;
253;SDS011;590;48.772;8.846;2022-07-23T13:04:02;8.73;;;8.23;;
253;SDS011;590;48.772;8.846;2022-07-23T13:06:39;7.80;;;7.40;;
253;SDS011;590;48.772;8.846;2022-07-23T13:09:10;8.20;;;7.80;;
253;SDS011;590;48.772;8.846;2022-07-23T13:11:41;7.73;;;7.33;;
253;SDS011;590;48.772;8.846;2022-07-23T13:14:10;7.33;;;6.93;;
253;SDS011;590;48.772;8.846;2022-07-23T13:16:39;7.87;;;7.47;;
253;SDS011;590;48.772;8.846;2022-07-23T13:19:09;7.37;;;6.97;;
253;SDS011;590;48.772;8.846;2022-07-23T13:21:38;7.63;;;7.23;;
253;SDS011;590;48.772;8.846;2022-07-23T13:24:08;7.60;;;7.20;;
253;SDS011;590;48.772;8.846;2022-07-23T13:26:38;6.97;;;6.57;;
253;SDS011;590;48.772;8.846;2022-07-23T13:29:07;7.50;;;7.10;;
253;SDS011;590;48.772;8.846;2022-07-23T13:31:36;8.00;;;7.60;;
253;SDS011;590;48.772;8.846;2022-07-23T13:34:05;7.03;;;6.63;;
253;SDS011;590;48.772;8.846;2022-07-23T13:36:35;7.20;;;6.80;;
253;SDS011;590;48.772;8.846;2022-07-23T13:39:04;8.73;;;8.23;;
253;SDS011;590;48.772;8.846;2022-07-23T13:41:35;8.30;;;7.90;;
253;SDS011;590;48.772;8.846;2022-07-23T13:44:04;8.27;;;7.87;;
253;SDS011;590;48.772;8.846;2022-07-23T13:46:32;7.33;;;6.93;;
253;SDS011;590;48.772;8.846;2022-07-23T13:49:01;8.10;;;7.70;;
253;SDS011;590;48.772;8.846;2022-07-23T13:51:32;7.60;;;7.20;;
253;SDS011;590;48.772;8.846;2022-07-23T13:54:02;8.70;;;8.20;;
253;SDS011;590;48.772;8.846;2022-07-23T13:56:34;8.37;;;7.93;;
253;SDS011;590;48.772;8.846;2022-07-23T13:59:02;7.83;;;7.43;;
253;SDS011;590;48.772;8.846;2022-07-23T14:01:32;9.10;;;8.60;;
253;SDS011;590;48.772;8.846;2022-07-23T14:04:11;8.30;;;7.90;;
253;SDS011;590;48.772;8.846;2022-07-23T14:06:39;7.57;;;7.17;;
253;SDS011;590;48.772;8.846;2022-07-23T14:09:09;7.80;;;7.40;;
253;SDS011;590;48.772;8.846;2022-07-23T14:11:37;7.83;;;7.43;;
253;SDS011;590;48.772;8.846;2022-07-23T14:14:05;8.07;;;7.67;;
253;SDS011;590;48.772;8.846;2022-07-23T14:16:33;7.50;;;7.10;;
253;SDS011;590;48.772;8.846;2022-07-23T14:19:01;7.97;;;7.57;;
253;SDS011;590;48.772;8.846;2022-07-23T14:21:30;8.20;;;7.80;;
253;SDS011;590;48.772;8.846;2022-07-23T14:23:59;7.53;;;7.13;;
253;SDS011;590;48.772;8.846;2022-07-23T14:26:28;7.83;;;7.43;;
253;SDS011;590;48.772;8.846;2022-07-23T14:28:56;8.00;;;7.60;;
253;SDS011;590;48.772;8.846;2022-07-23T14:31:26;8.03;;;7.63;;
253;SDS011;590;48.772;8.846;2022-07-23T14:33:54;7.07;;;6.67;;
253;SDS011;590;48.772;8.846;2022-07-23T14:36:22;7.83;;;7.43;;
253;SDS011;590;48.772;8.846;2022-07-23T14:38:51;8.23;;;7.83;;
253;SDS011;590;48.772;8.846;2022-07-23T14:41:19;7.87;;;7.47;;
253;SDS011;590;48.772;8.846;2022-07-23T14:43:54;9.10;;;8.60;;
253;SDS011;590;48.772;8.846;2022-07-23T14:46:22;9.60;;;9.10;;
253;SDS011;590;48.772;8.846;2022-07-23T14:48:50;7.93;;;7.43;;
253;SDS011;590;48.772;8.846;2022-07-23T14:51:19;9.33;;;8.83;;
253;SDS011;590;48.772;8.846;2022-07-23T14:53:47;8.73;;;8.23;;
253;SDS011;590;48.772;8.846;2022-07-23T14:56:15;7.87;;;7.47;;
253;SDS011;590;48.772;8.846;2022-07-23T14:58:44;8.07;;;7.67;;
253;SDS011;590;48.772;8.846;2022-07-23T15:01:13;8.33;;;7.90;;
253;SDS011;590;48.772;8.846;2022-07-23T15:03:42;9.00;;;8.50;;
253;SDS011;590;48.772;8.846;2022-07-23T15:06:11;8.33;;;7.90;;
253;SDS011;590;48.772;8.846;2022-07-23T15:08:39;7.90;;;7.50;;
253;SDS011;590;48.772;8.846;2022-07-23T15:11:07;8.03;;;7.63;;
253;SDS011;590;48.772;8.846;2022-07-23T15:13:36;9.00;;;8.50;;
253;SDS011;590;48.772;8.846;2022-07-23T15:16:05;9.53;;;9.03;;
253;SDS011;590;48.772;8.846;2022-07-23T15:18:37;8.57;;;8.07;;
253;SDS011;590;48.772;8.846;2022-07-23T15:21:06;9.27;;;8.77;;
253;SDS011;590;48.772;8.846;2022-07-23T15:23:34;9.80;;;9.30;;
253;SDS011;590;48.772;8.846;2022-07-23T15:26:06;10.20;;;9.70;;
253;SDS011;590;48.772;8.846;2022-07-23T15:28:35;11.10;;;10.50;;
253;SDS011;590;48.772;8.846;2022-07-23T15:31:03;9.87;;;9.37;;
253;SDS011;590;48.772;8.846;2022-07-23T15:33:34;8.27;;;7.87;;
253;SDS011;590;48.772;8.846;2022-07-23T15:36:06;9.83;;;8.27;;
253;SDS011;590;48.772;8.846;2022-07-23T15:38:36;9.03;;;8.53;;
253;SDS011;590;48.772;8.846;2022-07-23T15:41:04;8.27;;;7.83;;
253;SDS011;590;48.772;8.846;2022-07-23T15:43:32;9.07;;;8.57;;
253;SDS011;590;48.772;8.846;2022-07-23T15:46:00;9.30;;;8.80;;
253;SDS011;590;48.772;8.846;2022-07-23T15:48:33;8.30;;;7.87;;
253;SDS011;590;48.772;8.846;2022-07-23T15:51:05;9.00;;;8.50;;
253;SDS011;590;48.772;8.846;2022-07-23T15:53:33;7.97;;;7.57;;
253;SDS011;590;48.772;8.846;2022-07-23T15:56:03;8.70;;;8.20;;
253;SDS011;590;48.772;8.846;2022-07-23T15:58:40;9.70;;;9.20;;
253;SDS011;590;48.772;8.846;2022-07-23T16:01:10;9.10;;;8.60;;
253;SDS011;590;48.772;8.846;2022-07-23T16:03:39;9.80;;;9.30;;
253;SDS011;590;48.772;8.846;2022-07-23T16:06:11;9.50;;;9.00;;
253;SDS011;590;48.772;8.846;2022-07-23T16:08:44;9.03;;;8.53;;
253;SDS011;590;48.772;8.846;2022-07-23T16:11:13;8.00;;;7.60;;
253;SDS011;590;48.772;8.846;2022-07-23T16:13:41;9.43;;;8.93;;
253;SDS011;590;48.772;8.846;2022-07-23T16:16:10;8.77;;;8.27;;
253;SDS011;590;48.772;8.846;2022-07-23T16:18:38;9.00;;;8.50;;
253;SDS011;590;48.772;8.846;2022-07-23T16:21:06;9.40;;;8.90;;
253;SDS011;590;48.772;8.846;2022-07-23T16:23:42;8.67;;;8.17;;
253;SDS011;590;48.772;8.846;2022-07-23T16:26:11;9.40;;;8.90;;